Time;durP1;ratioP1;P1;durP2;ratioP2;P2;SDS_P1;SDS_P2;PMS_P1;PMS_P2;Temp;Humidity;BMP_temperature;BMP_pressure;BME280_temperature;BME280_humidity;BME280_pressure;Samples;Min_cycle;Max_cycle;Signal;HPM_P1;HPM_P2
2023/03/03 00:00:16;;;;;;;77.00;28.00;;;;;;;-128.00;-1.00;-1.00;100906;1304;1003139;-30
2023/03/03 00:02:43;;;;;;;91.10;25.10;;;;;;;-128.00;-1.00;-1.00;101251;1304;1003284;-34
2023/03/03 00:05:14;;;;;;;58.30;23.30;;;;;;;-128.00;-1.00;-1.00;101251;1304;1003558;-29
2023/03/03 00:07:43;;;;;;;96.40;28.20;;;;;;;-128.00;-1.00;-1.00;101198;1304;1003049;-34
2023/03/03 00:10:09;;;;;;;75.80;27.90;;;;;;;-128.00;-1.00;-1.00;101260;1304;1004223;-30
2023/03/03 00:12:35;;;;;;;62.30;22.60;;;;;;;-128.00;-1.00;-1.00;101345;1304;1005209;-38
2023/03/03 00:15:01;;;;;;;98.40;30.80;;;;;;;-128.00;-1.00;-1.00;101380;1304;1003342;-31
2023/03/03 00:17:31;;;;;;;65.60;20.60;;;;;;;-128.00;-1.00;-1.00;101434;1304;1003828;-30
2023/03/03 00:19:58;;;;;;;53.10;19.60;;;;;;;-128.00;-1.00;-1.00;101215;1298;1003422;-31
2023/03/03 00:22:35;;;;;;;67.20;23.70;;;;;;;-128.00;-1.00;-1.00;101417;1304;1004175;-34
2023/03/03 00:25:25;;;;;;;85.90;25.40;;;;;;;-128.00;-1.00;-1.00;101244;1304;1004795;-29
2023/03/03 00:27:51;;;;;;;49.80;20.80;;;;;;;-128.00;-1.00;-1.00;101298;1304;1003402;-34
2023/03/03 00:30:23;;;;;;;57.10;20.60;;;;;;;-128.00;-1.00;-1.00;101272;1304;1003066;-30
2023/03/03 00:32:51;;;;;;;105.70;29.00;;;;;;;-128.00;-1.00;-1.00;101238;1304;1004204;-34
2023/03/03 00:35:26;;;;;;;46.30;18.60;;;;;;;-128.00;-1.00;-1.00;101364;1297;1005076;-34
2023/03/03 00:37:57;;;;;;;54.40;19.50;;;;;;;-128.00;-1.00;-1.00;101081;1304;1002568;-35
2023/03/03 00:40:24;;;;;;;102.90;35.50;;;;;;;-128.00;-1.00;-1.00;101138;1304;1003593;-29
2023/03/03 00:42:52;;;;;;;90.40;27.30;;;;;;;-128.00;-1.00;-1.00;101270;1304;1005180;-37
2023/03/03 00:45:32;;;;;;;69.70;23.70;;;;;;;-128.00;-1.00;-1.00;101229;1304;1002595;-35
2023/03/03 00:47:58;;;;;;;71.10;24.00;;;;;;;-128.00;-1.00;-1.00;101212;1304;1003648;-29
2023/03/03 00:50:28;;;;;;;101.20;26.70;;;;;;;-128.00;-1.00;-1.00;101273;1304;1004481;-34
2023/03/03 00:53:00;;;;;;;93.80;28.10;;;;;;;-128.00;-1.00;-1.00;101037;1301;1003012;-30
2023/03/03 00:55:26;;;;;;;73.20;24.70;;;;;;;-128.00;-1.00;-1.00;101158;1301;1004445;-30
2023/03/03 00:57:52;;;;;;;58.50;21.70;;;;;;;-128.00;-1.00;-1.00;101292;1304;1002782;-38
2023/03/03 01:00:18;;;;;;;83.60;26.30;;;;;;;-128.00;-1.00;-1.00;101190;1304;1002853;-30
2023/03/03 01:02:45;;;;;;;57.30;19.90;;;;;;;-128.00;-1.00;-1.00;101237;1304;1004262;-34
2023/03/03 01:05:13;;;;;;;76.30;25.30;;;;;;;-128.00;-1.00;-1.00;101363;1304;1003077;-35
2023/03/03 01:07:39;;;;;;;68.70;23.30;;;;;;;-128.00;-1.00;-1.00;101096;1304;1004009;-35
2023/03/03 01:10:06;;;;;;;76.30;25.20;;;;;;;-128.00;-1.00;-1.00;101125;1304;1003416;-34
2023/03/03 01:12:31;;;;;;;82.60;26.50;;;;;;;-128.00;-1.00;-1.00;101118;1304;1003884;-32
2023/03/03 01:14:57;;;;;;;63.10;21.90;;;;;;;-128.00;-1.00;-1.00;101126;1304;1003547;-34
2023/03/03 01:17:23;;;;;;;82.00;23.50;;;;;;;-128.00;-1.00;-1.00;101257;1304;1002866;-35
2023/03/03 01:19:49;;;;;;;75.80;26.90;;;;;;;-128.00;-1.00;-1.00;101151;1304;1004112;-31
2023/03/03 01:22:15;;;;;;;63.10;22.10;;;;;;;-128.00;-1.00;-1.00;101265;1304;1003165;-34
2023/03/03 01:24:41;;;;;;;76.60;23.40;;;;;;;-128.00;-1.00;-1.00;101250;1304;1004908;-34
2023/03/03 01:27:07;;;;;;;75.50;25.60;;;;;;;-128.00;-1.00;-1.00;101251;1304;1003542;-30
2023/03/03 01:29:32;;;;;;;82.40;28.10;;;;;;;-128.00;-1.00;-1.00;101132;1304;1003631;-33
2023/03/03 01:31:59;;;;;;;45.70;15.60;;;;;;;-128.00;-1.00;-1.00;101076;1304;1002696;-34
2023/03/03 01:34:24;;;;;;;59.30;20.50;;;;;;;-128.00;-1.00;-1.00;101309;1304;1003789;-30
2023/03/03 01:36:50;;;;;;;78.10;24.10;;;;;;;-128.00;-1.00;-1.00;101284;1304;1002900;-36
2023/03/03 01:39:16;;;;;;;74.90;28.20;;;;;;;-128.00;-1.00;-1.00;101224;1304;1002469;-29
2023/03/03 01:41:42;;;;;;;83.70;25.30;;;;;;;-128.00;-1.00;-1.00;101228;1304;1003609;-34
2023/03/03 01:44:13;;;;;;;52.60;20.20;;;;;;;-128.00;-1.00;-1.00;101159;1304;1002735;-29
2023/03/03 01:46:52;;;;;;;71.40;24.90;;;;;;;-128.00;-1.00;-1.00;101087;1304;1002985;-35
2023/03/03 01:49:21;;;;;;;58.30;20.70;;;;;;;-128.00;-1.00;-1.00;101273;1301;1003043;-30
2023/03/03 01:51:51;;;;;;;47.00;19.90;;;;;;;-128.00;-1.00;-1.00;101222;1304;1004138;-29
2023/03/03 01:54:21;;;;;;;60.80;22.70;;;;;;;-128.00;-1.00;-1.00;101077;1304;1003510;-31
2023/03/03 01:56:48;;;;;;;60.50;22.00;;;;;;;-128.00;-1.00;-1.00;101222;1301;1002764;-34
2023/03/03 01:59:19;;;;;;;49.40;20.20;;;;;;;-128.00;-1.00;-1.00;101220;1304;1003788;-35
2023/03/03 02:01:45;;;;;;;78.50;25.90;;;;;;;-128.00;-1.00;-1.00;101229;1304;1004474;-35
2023/03/03 02:04:11;;;;;;;69.30;23.60;;;;;;;-128.00;-1.00;-1.00;101214;1304;1004227;-30
2023/03/03 02:06:41;;;;;;;54.30;19.90;;;;;;;-128.00;-1.00;-1.00;101167;1304;1003108;-35
2023/03/03 02:09:28;;;;;;;55.70;20.40;;;;;;;-128.00;-1.00;-1.00;101076;1304;1004959;-31
2023/03/03 02:11:58;;;;;;;55.90;22.50;;;;;;;-128.00;-1.00;-1.00;101195;1304;1002880;-36
2023/03/03 02:14:24;;;;;;;66.90;22.00;;;;;;;-128.00;-1.00;-1.00;101202;1304;1002884;-36
2023/03/03 02:16:50;;;;;;;77.80;24.10;;;;;;;-128.00;-1.00;-1.00;101242;1304;1003527;-33
2023/03/03 02:19:31;;;;;;;60.20;22.80;;;;;;;-128.00;-1.00;-1.00;101253;1304;1003391;-28
2023/03/03 02:21:57;;;;;;;70.40;23.90;;;;;;;-128.00;-1.00;-1.00;101211;1304;1003855;-34
2023/03/03 02:24:29;;;;;;;56.30;17.80;;;;;;;-128.00;-1.00;-1.00;101269;1304;1002823;-34
2023/03/03 02:26:54;;;;;;;74.00;23.40;;;;;;;-128.00;-1.00;-1.00;101190;1298;1002757;-35
2023/03/03 02:29:20;;;;;;;84.80;29.90;;;;;;;-128.00;-1.00;-1.00;101103;1304;1003801;-35
2023/03/03 02:31:46;;;;;;;51.30;19.00;;;;;;;-128.00;-1.00;-1.00;101192;1304;1002816;-32
2023/03/03 02:34:12;;;;;;;67.40;22.90;;;;;;;-128.00;-1.00;-1.00;101217;1304;1005004;-30
2023/03/03 02:36:38;;;;;;;77.00;25.00;;;;;;;-128.00;-1.00;-1.00;101273;1304;1004236;-34
2023/03/03 02:39:13;;;;;;;59.40;21.70;;;;;;;-128.00;-1.00;-1.00;101268;1301;1002565;-30
2023/03/03 02:41:57;;;;;;;55.20;19.70;;;;;;;-128.00;-1.00;-1.00;101158;1304;1002885;-29
2023/03/03 02:44:26;;;;;;;62.90;22.60;;;;;;;-128.00;-1.00;-1.00;101012;1304;1005058;-34
2023/03/03 02:46:53;;;;;;;48.30;19.10;;;;;;;-128.00;-1.00;-1.00;101311;1301;1003286;-30
2023/03/03 02:49:22;;;;;;;70.70;25.90;;;;;;;-128.00;-1.00;-1.00;101182;1304;1003018;-29
2023/03/03 02:51:47;;;;;;;66.30;23.30;;;;;;;-128.00;-1.00;-1.00;101148;1304;1003906;-34
2023/03/03 02:54:14;;;;;;;55.40;21.60;;;;;;;-128.00;-1.00;-1.00;101206;1304;1003854;-34
2023/03/03 02:56:40;;;;;;;62.90;22.80;;;;;;;-128.00;-1.00;-1.00;101223;1304;1003914;-30
2023/03/03 02:59:06;;;;;;;71.60;27.00;;;;;;;-128.00;-1.00;-1.00;101223;1304;1004226;-34
2023/03/03 03:01:35;;;;;;;53.50;21.10;;;;;;;-128.00;-1.00;-1.00;101166;1304;1003318;-30
2023/03/03 03:04:04;;;;;;;87.70;28.00;;;;;;;-128.00;-1.00;-1.00;100905;1304;1003223;-29
2023/03/03 03:06:30;;;;;;;73.50;25.80;;;;;;;-128.00;-1.00;-1.00;101161;1304;1002775;-30
2023/03/03 03:08:57;;;;;;;62.70;21.70;;;;;;;-128.00;-1.00;-1.00;101208;1304;1003656;-28
2023/03/03 03:11:23;;;;;;;79.60;25.40;;;;;;;-128.00;-1.00;-1.00;101089;1304;1004469;-35
2023/03/03 03:13:49;;;;;;;80.60;24.70;;;;;;;-128.00;-1.00;-1.00;101422;1304;1004350;-35
2023/03/03 03:16:14;;;;;;;68.60;23.60;;;;;;;-128.00;-1.00;-1.00;101167;1304;1002987;-30
2023/03/03 03:18:40;;;;;;;65.50;22.00;;;;;;;-128.00;-1.00;-1.00;101161;1304;1003422;-28
2023/03/03 03:21:11;;;;;;;54.10;21.90;;;;;;;-128.00;-1.00;-1.00;101289;1304;1002886;-34
2023/03/03 03:23:37;;;;;;;89.50;27.30;;;;;;;-128.00;-1.00;-1.00;101164;1304;1002961;-36
2023/03/03 03:26:04;;;;;;;72.20;24.90;;;;;;;-128.00;-1.00;-1.00;101217;1304;1002998;-34
2023/03/03 03:28:29;;;;;;;80.20;29.70;;;;;;;-128.00;-1.00;-1.00;101252;1304;1002918;-32
2023/03/03 03:30:56;;;;;;;76.50;23.80;;;;;;;-128.00;-1.00;-1.00;101295;1304;1003615;-34
2023/03/03 03:33:22;;;;;;;43.00;13.60;;;;;;;-128.00;-1.00;-1.00;101209;1297;1003051;-31
2023/03/03 03:35:49;;;;;;;73.90;25.20;;;;;;;-128.00;-1.00;-1.00;101074;1304;1003340;-34
2023/03/03 03:38:15;;;;;;;66.90;23.00;;;;;;;-128.00;-1.00;-1.00;101182;1304;1003245;-30
2023/03/03 03:40:41;;;;;;;75.70;26.60;;;;;;;-128.00;-1.00;-1.00;101162;1304;1003063;-30
2023/03/03 03:43:07;;;;;;;72.20;23.00;;;;;;;-128.00;-1.00;-1.00;101221;1304;1004527;-30
2023/03/03 03:45:32;;;;;;;75.60;26.80;;;;;;;-128.00;-1.00;-1.00;101205;1304;1005203;-35
2023/03/03 03:47:58;;;;;;;66.00;23.60;;;;;;;-128.00;-1.00;-1.00;101238;1304;1003284;-34
2023/03/03 03:50:24;;;;;;;64.70;18.90;;;;;;;-128.00;-1.00;-1.00;101285;1304;1002309;-29
2023/03/03 03:52:50;;;;;;;55.40;16.80;;;;;;;-128.00;-1.00;-1.00;101322;1304;1003598;-29
2023/03/03 03:55:16;;;;;;;74.90;19.10;;;;;;;-128.00;-1.00;-1.00;101166;1304;1005291;-34
2023/03/03 03:57:42;;;;;;;58.50;19.10;;;;;;;-128.00;-1.00;-1.00;101251;1304;1005548;-34
2023/03/03 04:00:09;;;;;;;63.20;21.00;;;;;;;-128.00;-1.00;-1.00;101223;1304;1003516;-34
2023/03/03 04:02:35;;;;;;;62.10;21.50;;;;;;;-128.00;-1.00;-1.00;101091;1303;1002335;-35
2023/03/03 04:05:01;;;;;;;61.40;23.10;;;;;;;-128.00;-1.00;-1.00;101335;1304;1003664;-28
2023/03/03 04:07:26;;;;;;;73.30;25.60;;;;;;;-128.00;-1.00;-1.00;101193;1304;1003585;-28
2023/03/03 04:09:54;;;;;;;54.00;15.00;;;;;;;-128.00;-1.00;-1.00;100874;1304;1003175;-30
2023/03/03 04:12:20;;;;;;;81.40;26.30;;;;;;;-128.00;-1.00;-1.00;101210;1301;1003336;-35
2023/03/03 04:14:46;;;;;;;84.50;26.10;;;;;;;-128.00;-1.00;-1.00;101239;1304;1004325;-33
2023/03/03 04:17:16;;;;;;;78.50;27.20;;;;;;;-128.00;-1.00;-1.00;101145;1304;1002862;-33
2023/03/03 04:19:41;;;;;;;66.00;18.50;;;;;;;-128.00;-1.00;-1.00;101275;1304;1004418;-29
2023/03/03 04:22:07;;;;;;;62.60;23.30;;;;;;;-128.00;-1.00;-1.00;100999;1304;1003111;-30
2023/03/03 04:24:34;;;;;;;68.50;21.90;;;;;;;-128.00;-1.00;-1.00;101320;1304;1002543;-29
2023/03/03 04:27:00;;;;;;;88.00;26.40;;;;;;;-128.00;-1.00;-1.00;101247;1304;1003311;-29
2023/03/03 04:29:26;;;;;;;81.50;25.60;;;;;;;-128.00;-1.00;-1.00;101213;1304;1003513;-34
2023/03/03 04:31:52;;;;;;;70.30;22.60;;;;;;;-128.00;-1.00;-1.00;101075;1304;1003379;-30
2023/03/03 04:34:19;;;;;;;117.60;29.40;;;;;;;-128.00;-1.00;-1.00;101157;1304;1003080;-35
2023/03/03 05:15:14;;;;;;;113.80;31.40;;;;;;;-102.87;19.20;19961.65;101737;1304;1543775;-30
2023/03/03 05:17:41;;;;;;;71.90;22.00;;;;;;;-128.00;-1.00;-1.00;100766;1304;1003150;-35
2023/03/03 05:20:09;;;;;;;91.90;22.60;;;;;;;-128.00;-1.00;-1.00;101258;1304;1003972;-30
2023/03/03 05:22:35;;;;;;;54.60;20.70;;;;;;;-128.00;-1.00;-1.00;101103;1304;1004153;-34
2023/03/03 05:25:00;;;;;;;91.00;22.80;;;;;;;-128.00;-1.00;-1.00;101128;1304;1004828;-30
2023/03/03 05:27:26;;;;;;;49.20;17.10;;;;;;;-128.00;-1.00;-1.00;101143;1304;1004648;-29
2023/03/03 05:29:52;;;;;;;51.10;17.00;;;;;;;-128.00;-1.00;-1.00;100897;1304;1002871;-35
2023/03/03 05:32:18;;;;;;;65.00;18.00;;;;;;;-128.00;-1.00;-1.00;100973;1304;1004646;-31
2023/03/03 05:34:44;;;;;;;47.30;14.40;;;;;;;-128.00;-1.00;-1.00;101132;1304;1003173;-30
2023/03/03 05:37:10;;;;;;;80.70;21.60;;;;;;;-128.00;-1.00;-1.00;101147;1304;1002769;-34
2023/03/03 05:39:36;;;;;;;64.10;23.40;;;;;;;-128.00;-1.00;-1.00;101157;1304;1004203;-29
2023/03/03 05:42:02;;;;;;;54.90;17.40;;;;;;;-128.00;-1.00;-1.00;101065;1304;1005295;-34
2023/03/03 05:44:28;;;;;;;47.40;16.70;;;;;;;-128.00;-1.00;-1.00;101146;1304;1005284;-30
2023/03/03 05:46:56;;;;;;;59.10;21.30;;;;;;;-128.00;-1.00;-1.00;101205;1304;1003257;-35
2023/03/03 05:49:22;;;;;;;60.90;17.80;;;;;;;-128.00;-1.00;-1.00;100953;1304;1004003;-31
2023/03/03 05:51:48;;;;;;;59.30;18.30;;;;;;;-128.00;-1.00;-1.00;100938;1304;1004653;-29
2023/03/03 05:54:13;;;;;;;56.10;18.00;;;;;;;-128.00;-1.00;-1.00;101097;1304;1004570;-34
2023/03/03 05:56:39;;;;;;;66.50;19.80;;;;;;;-128.00;-1.00;-1.00;101138;1304;1003226;-33
2023/03/03 05:59:05;;;;;;;45.20;14.50;;;;;;;-128.00;-1.00;-1.00;101211;1304;1004224;-29
2023/03/03 06:01:31;;;;;;;33.50;11.10;;;;;;;-128.00;-1.00;-1.00;101097;1304;1004759;-30
2023/03/03 06:03:57;;;;;;;39.00;14.90;;;;;;;-128.00;-1.00;-1.00;101137;1304;1004267;-34
2023/03/03 06:06:23;;;;;;;52.00;17.20;;;;;;;-128.00;-1.00;-1.00;101155;1304;1003312;-34
2023/03/03 06:08:49;;;;;;;54.20;20.10;;;;;;;-128.00;-1.00;-1.00;101039;1304;1003722;-30
2023/03/03 06:11:17;;;;;;;50.20;15.80;;;;;;;-128.00;-1.00;-1.00;101161;1304;1003833;-29
2023/03/03 06:13:43;;;;;;;68.60;18.00;;;;;;;-128.00;-1.00;-1.00;101217;1304;1003148;-30
2023/03/03 06:16:09;;;;;;;41.90;15.60;;;;;;;-128.00;-1.00;-1.00;101113;1304;1003722;-28
2023/03/03 06:18:35;;;;;;;51.40;18.80;;;;;;;-128.00;-1.00;-1.00;101130;1304;1004048;-29
2023/03/03 06:21:01;;;;;;;32.00;12.00;;;;;;;-128.00;-1.00;-1.00;101153;1304;1003257;-30
2023/03/03 06:23:27;;;;;;;42.00;14.10;;;;;;;-128.00;-1.00;-1.00;101144;1304;1003094;-33
2023/03/03 06:25:53;;;;;;;39.50;8.40;;;;;;;-128.00;-1.00;-1.00;101080;1305;1003604;-33
2023/03/03 06:28:19;;;;;;;43.10;15.40;;;;;;;-128.00;-1.00;-1.00;101115;1304;1002765;-29
2023/03/03 06:30:44;;;;;;;44.20;13.50;;;;;;;-128.00;-1.00;-1.00;101080;1305;1003679;-29
2023/03/03 06:33:10;;;;;;;44.40;15.60;;;;;;;-128.00;-1.00;-1.00;101064;1304;1003064;-31
2023/03/03 06:35:36;;;;;;;48.50;15.80;;;;;;;-128.00;-1.00;-1.00;101121;1304;1002130;-29
2023/03/03 06:38:02;;;;;;;38.30;13.30;;;;;;;-128.00;-1.00;-1.00;101145;1304;1002746;-34
2023/03/03 06:40:28;;;;;;;28.00;11.00;;;;;;;-128.00;-1.00;-1.00;100810;1304;1003278;-34
2023/03/03 06:42:54;;;;;;;26.60;8.60;;;;;;;-128.00;-1.00;-1.00;101114;1304;1003225;-35
2023/03/03 06:45:20;;;;;;;47.80;16.60;;;;;;;-128.00;-1.00;-1.00;101191;1304;1003780;-31
2023/03/03 06:47:45;;;;;;;48.90;16.20;;;;;;;-128.00;-1.00;-1.00;100789;1304;1005128;-34
2023/03/03 06:50:11;;;;;;;38.50;11.40;;;;;;;-128.00;-1.00;-1.00;100915;1303;1002842;-30
2023/03/03 06:52:37;;;;;;;51.40;15.00;;;;;;;-128.00;-1.00;-1.00;100958;1304;1003716;-34
2023/03/03 06:55:11;;;;;;;55.70;16.70;;;;;;;-128.00;-1.00;-1.00;101131;1304;1002451;-30
2023/03/03 06:57:37;;;;;;;41.10;15.00;;;;;;;-128.00;-1.00;-1.00;101160;1303;1002949;-35
2023/03/03 07:00:26;;;;;;;27.60;8.20;;;;;;;-128.00;-1.00;-1.00;100889;1304;1004311;-35
2023/03/03 07:03:00;;;;;;;45.20;14.80;;;;;;;-128.00;-1.00;-1.00;101117;1304;1003334;-30
2023/03/03 07:05:27;;;;;;;42.10;14.60;;;;;;;-128.00;-1.00;-1.00;101159;1302;1002606;-30
2023/03/03 07:07:55;;;;;;;32.30;12.90;;;;;;;-128.00;-1.00;-1.00;101155;1304;1003057;-34
2023/03/03 07:10:25;;;;;;;42.50;12.60;;;;;;;-128.00;-1.00;-1.00;101132;1304;1003865;-32
2023/03/03 07:12:52;;;;;;;21.90;8.60;;;;;;;-128.00;-1.00;-1.00;101106;1302;1003606;-32
2023/03/03 07:15:22;;;;;;;59.90;15.30;;;;;;;-128.00;-1.00;-1.00;100932;1304;1004247;-31
2023/03/03 07:17:49;;;;;;;48.30;16.00;;;;;;;-128.00;-1.00;-1.00;100909;1305;1002658;-30
2023/03/03 07:20:20;;;;;;;45.30;13.80;;;;;;;-128.00;-1.00;-1.00;101255;1302;1002984;-35
2023/03/03 07:22:46;;;;;;;35.50;12.20;;;;;;;-128.00;-1.00;-1.00;101069;1304;1004668;-30
2023/03/03 07:25:27;;;;;;;29.80;10.80;;;;;;;-128.00;-1.00;-1.00;101088;1301;1002982;-34
2023/03/03 07:27:56;;;;;;;33.30;11.90;;;;;;;-128.00;-1.00;-1.00;100975;1304;1002890;-30
2023/03/03 07:30:25;;;;;;;26.00;8.70;;;;;;;-128.00;-1.00;-1.00;101193;1304;1003776;-30
2023/03/03 07:32:55;;;;;;;42.20;11.70;;;;;;;-128.00;-1.00;-1.00;101078;1304;1003610;-35
2023/03/03 07:35:37;;;;;;;40.70;12.20;;;;;;;-128.00;-1.00;-1.00;101085;1304;1002887;-35
2023/03/03 07:38:16;;;;;;;35.70;11.50;;;;;;;-128.00;-1.00;-1.00;101159;1304;1003008;-30
2023/03/03 07:40:47;;;;;;;33.10;13.30;;;;;;;-128.00;-1.00;-1.00;101121;1304;1004136;-30
2023/03/03 07:43:28;;;;;;;33.20;9.40;;;;;;;-128.00;-1.00;-1.00;101097;1304;1003241;-35
2023/03/03 07:46:00;;;;;;;26.30;8.60;;;;;;;-128.00;-1.00;-1.00;101037;1304;1003041;-30
2023/03/03 07:48:34;;;;;;;22.60;8.50;;;;;;;-128.00;-1.00;-1.00;101145;1304;1002920;-34
2023/03/03 07:51:04;;;;;;;27.80;11.00;;;;;;;-128.00;-1.00;-1.00;100754;1304;1003980;-34
2023/03/03 07:53:33;;;;;;;35.50;10.60;;;;;;;-128.00;-1.00;-1.00;101211;1305;1003179;-33
2023/03/03 07:55:59;;;;;;;28.60;10.90;;;;;;;-128.00;-1.00;-1.00;101114;1304;1003011;-30
2023/03/03 07:58:34;;;;;;;15.80;5.40;;;;;;;-128.00;-1.00;-1.00;101174;1304;1004375;-30
2023/03/03 08:01:22;;;;;;;22.10;6.90;;;;;;;-128.00;-1.00;-1.00;101169;1304;1002950;-29
2023/03/03 08:03:49;;;;;;;25.30;8.30;;;;;;;-128.00;-1.00;-1.00;101080;1304;1002778;-34
2023/03/03 08:06:35;;;;;;;23.90;7.80;;;;;;;-128.00;-1.00;-1.00;101105;1304;1003501;-34
2023/03/03 08:09:13;;;;;;;24.00;9.30;;;;;;;-128.00;-1.00;-1.00;101104;1305;1002735;-34
2023/03/03 08:11:56;;;;;;;28.20;9.20;;;;;;;-128.00;-1.00;-1.00;101172;1304;1003541;-30
2023/03/03 08:14:28;;;;;;;23.40;8.30;;;;;;;-128.00;-1.00;-1.00;100926;1304;1003887;-30
2023/03/03 08:16:55;;;;;;;28.70;8.60;;;;;;;-128.00;-1.00;-1.00;101094;1304;1002742;-37
2023/03/03 08:19:20;;;;;;;17.80;8.80;;;;;;;-128.00;-1.00;-1.00;100733;1304;1002722;-35
2023/03/03 08:21:46;;;;;;;30.20;9.50;;;;;;;-128.00;-1.00;-1.00;101138;1304;1003348;-30
2023/03/03 08:24:12;;;;;;;17.90;7.00;;;;;;;-128.00;-1.00;-1.00;101218;1305;1003071;-34
2023/03/03 08:26:38;;;;;;;26.60;9.30;;;;;;;-128.00;-1.00;-1.00;101132;1305;1005267;-35
2023/03/03 08:29:04;;;;;;;20.10;7.60;;;;;;;-128.00;-1.00;-1.00;101160;1305;1003344;-34
2023/03/03 08:31:30;;;;;;;24.30;9.20;;;;;;;-128.00;-1.00;-1.00;101075;1304;1004416;-34
2023/03/03 08:33:56;;;;;;;21.60;8.50;;;;;;;-128.00;-1.00;-1.00;101198;1304;1003560;-31
2023/03/03 08:36:22;;;;;;;22.40;8.80;;;;;;;-128.00;-1.00;-1.00;101143;1305;1003761;-35
2023/03/03 08:38:47;;;;;;;23.80;8.60;;;;;;;-128.00;-1.00;-1.00;101018;1305;1002570;-35
2023/03/03 08:41:13;;;;;;;30.20;10.40;;;;;;;-128.00;-1.00;-1.00;101010;1304;1003335;-32
2023/03/03 08:43:39;;;;;;;23.50;9.00;;;;;;;-128.00;-1.00;-1.00;100928;1305;1003585;-30
2023/03/03 08:46:05;;;;;;;23.70;10.80;;;;;;;-128.00;-1.00;-1.00;100938;1305;1003267;-30
2023/03/03 08:48:32;;;;;;;21.10;7.90;;;;;;;-128.00;-1.00;-1.00;101098;1304;1005110;-31
2023/03/03 08:50:58;;;;;;;23.00;9.20;;;;;;;-128.00;-1.00;-1.00;100941;1305;1004771;-31
2023/03/03 08:53:24;;;;;;;25.30;7.00;;;;;;;-128.00;-1.00;-1.00;101126;1304;1003524;-35
2023/03/03 08:55:50;;;;;;;30.60;10.50;;;;;;;-128.00;-1.00;-1.00;100906;1305;1003730;-31
2023/03/03 08:58:16;;;;;;;29.20;11.00;;;;;;;-128.00;-1.00;-1.00;101086;1305;1003505;-35
2023/03/03 09:00:42;;;;;;;19.20;8.00;;;;;;;-128.00;-1.00;-1.00;100878;1305;1004268;-31
2023/03/03 09:03:08;;;;;;;28.60;9.20;;;;;;;-128.00;-1.00;-1.00;101195;1305;1003402;-30
2023/03/03 09:05:35;;;;;;;20.60;8.30;;;;;;;-128.00;-1.00;-1.00;101051;1305;1003527;-33
2023/03/03 09:08:01;;;;;;;21.50;7.30;;;;;;;-128.00;-1.00;-1.00;100977;1305;1002411;-30
2023/03/03 09:10:28;;;;;;;27.50;9.90;;;;;;;-128.00;-1.00;-1.00;101139;1304;1003403;-34
2023/03/03 09:12:57;;;;;;;20.50;6.90;;;;;;;-128.00;-1.00;-1.00;101189;1304;1005188;-30
2023/03/03 09:15:25;;;;;;;17.30;7.00;;;;;;;-128.00;-1.00;-1.00;101080;1302;1002934;-28
2023/03/03 09:17:51;;;;;;;12.00;4.60;;;;;;;-128.00;-1.00;-1.00;101174;1304;1003928;-33
2023/03/03 09:20:33;;;;;;;18.70;8.40;;;;;;;-128.00;-1.00;-1.00;101137;1304;1003696;-28
2023/03/03 09:23:29;;;;;;;17.90;8.20;;;;;;;-128.00;-1.00;-1.00;101176;1304;1004117;-31
2023/03/03 09:25:55;;;;;;;27.20;9.50;;;;;;;-128.00;-1.00;-1.00;100952;1304;1004973;-32
2023/03/03 09:28:27;;;;;;;17.70;7.60;;;;;;;-128.00;-1.00;-1.00;101162;1304;1003912;-31
2023/03/03 09:30:53;;;;;;;23.50;9.50;;;;;;;-128.00;-1.00;-1.00;101050;1304;1003036;-30
2023/03/03 09:33:40;;;;;;;23.00;9.10;;;;;;;-128.00;-1.00;-1.00;100940;1305;1003299;-29
2023/03/03 09:36:20;;;;;;;37.90;10.80;;;;;;;-128.00;-1.00;-1.00;101145;1304;1003555;-33
2023/03/03 09:38:46;;;;;;;35.10;11.70;;;;;;;-128.00;-1.00;-1.00;100988;1305;1003071;-29
2023/03/03 09:41:34;;;;;;;24.00;8.30;;;;;;;-128.00;-1.00;-1.00;101116;1302;1004577;-32
2023/03/03 09:44:24;;;;;;;17.10;7.90;;;;;;;-128.00;-1.00;-1.00;101173;1304;1004067;-30
2023/03/03 09:47:06;;;;;;;17.90;6.50;;;;;;;-128.00;-1.00;-1.00;101108;1304;1003102;-34
2023/03/03 09:49:56;;;;;;;20.80;7.70;;;;;;;-128.00;-1.00;-1.00;101025;1304;1002888;-34
2023/03/03 09:52:47;;;;;;;18.50;6.90;;;;;;;-128.00;-1.00;-1.00;101096;1305;1002809;-30
2023/03/03 09:55:40;;;;;;;14.30;6.00;;;;;;;-128.00;-1.00;-1.00;101109;1305;1003232;-30
2023/03/03 09:58:17;;;;;;;21.60;7.10;;;;;;;-128.00;-1.00;-1.00;100930;1305;1003425;-30
2023/03/03 10:00:58;;;;;;;42.90;14.20;;;;;;;-128.00;-1.00;-1.00;101004;1305;1002325;-30
2023/03/03 10:03:46;;;;;;;46.30;16.10;;;;;;;-128.00;-1.00;-1.00;101109;1304;1003249;-30
2023/03/03 10:06:28;;;;;;;38.80;15.20;;;;;;;-128.00;-1.00;-1.00;101089;1304;1002689;-33
2023/03/03 10:09:09;;;;;;;30.90;12.40;;;;;;;-128.00;-1.00;-1.00;101083;1305;1002772;-29
2023/03/03 10:11:41;;;;;;;16.90;12.50;;;;;;;-128.00;-1.00;-1.00;101116;1297;1004620;-34
2023/03/03 10:14:17;;;;;;;13.60;6.20;;;;;;;-128.00;-1.00;-1.00;101109;1301;1002862;-30
2023/03/03 10:16:57;;;;;;;28.80;11.90;;;;;;;-128.00;-1.00;-1.00;101108;1304;1003961;-34
2023/03/03 10:19:36;;;;;;;30.60;11.70;;;;;;;-128.00;-1.00;-1.00;100952;1304;1005533;-35
2023/03/03 10:22:19;;;;;;;31.60;10.90;;;;;;;-128.00;-1.00;-1.00;101231;1304;1004817;-37
2023/03/03 10:25:04;;;;;;;36.90;11.90;;;;;;;-128.00;-1.00;-1.00;100803;1305;1003090;-33
2023/03/03 10:27:47;;;;;;;22.50;9.00;;;;;;;-128.00;-1.00;-1.00;101138;1304;1003735;-29
2023/03/03 10:30:28;;;;;;;10.10;3.90;;;;;;;-128.00;-1.00;-1.00;101143;1304;1003740;-30
2023/03/03 10:32:58;;;;;;;23.70;8.90;;;;;;;-128.00;-1.00;-1.00;101126;1298;1003229;-30
2023/03/03 10:35:38;;;;;;;13.10;9.50;;;;;;;-128.00;-1.00;-1.00;101191;1304;1004432;-34
2023/03/03 10:38:26;;;;;;;24.20;8.20;;;;;;;-128.00;-1.00;-1.00;101086;1304;1002798;-33
2023/03/03 10:41:04;;;;;;;29.70;8.60;;;;;;;-128.00;-1.00;-1.00;101156;1304;1005103;-29
2023/03/03 10:43:40;;;;;;;16.40;7.50;;;;;;;-128.00;-1.00;-1.00;101159;1304;1002936;-34
2023/03/03 10:46:29;;;;;;;19.00;8.50;;;;;;;-128.00;-1.00;-1.00;100989;1302;1002926;-36
2023/03/03 10:49:12;;;;;;;30.80;10.40;;;;;;;-128.00;-1.00;-1.00;101228;1304;1003433;-31
2023/03/03 10:52:01;;;;;;;18.90;8.70;;;;;;;-128.00;-1.00;-1.00;100972;1303;1002772;-31
2023/03/03 10:54:34;;;;;;;16.80;8.60;;;;;;;-128.00;-1.00;-1.00;101089;1305;1002735;-31
2023/03/03 10:57:06;;;;;;;22.00;11.60;;;;;;;-128.00;-1.00;-1.00;101172;1304;1002154;-28
2023/03/03 10:59:49;;;;;;;27.30;13.00;;;;;;;-128.00;-1.00;-1.00;101162;1304;1003762;-29
2023/03/03 11:02:38;;;;;;;26.80;10.60;;;;;;;-128.00;-1.00;-1.00;101091;1304;1002684;-33
2023/03/03 11:47:05;;;;;;;30.30;13.30;;;;;;;0.37;100.00;99793.06;104503;1285;557941;-33
2023/03/03 11:49:35;;;;;;;24.20;8.20;;;;;;;0.44;100.00;99786.23;104269;1302;342169;-34
2023/03/03 11:52:15;;;;;;;34.20;14.80;;;;;;;0.46;100.00;99793.48;104827;1292;23027;-33
2023/03/03 11:54:51;;;;;;;21.60;10.90;;;;;;;0.31;100.00;99792.31;104789;1282;24413;-34
2023/03/03 11:57:36;;;;;;;28.10;14.50;;;;;;;0.40;100.00;99793.22;104945;1295;24269;-30
2023/03/03 12:00:15;;;;;;;26.60;10.60;;;;;;;0.26;100.00;99792.39;104874;1282;24056;-34
2023/03/03 12:03:05;;;;;;;33.20;14.00;;;;;;;0.13;100.00;99795.50;104889;1302;23150;-31
2023/03/03 12:05:53;;;;;;;22.20;10.20;;;;;;;0.34;100.00;99789.11;104893;1292;24252;-30
2023/03/03 12:08:43;;;;;;;33.60;12.20;;;;;;;0.13;100.00;99798.19;104703;1302;23035;-35
2023/03/03 12:11:16;;;;;;;30.70;9.60;;;;;;;0.15;100.00;99793.61;104789;1289;22625;-30
2023/03/03 12:13:52;;;;;;;19.60;10.00;;;;;;;0.54;100.00;99793.84;104805;1302;22555;-30
2023/03/03 12:16:49;;;;;;;22.80;9.80;;;;;;;-128.00;-1.00;-1.00;101225;1298;1005368;-35
2023/03/03 12:19:39;;;;;;;34.40;11.00;;;;;;;-128.00;-1.00;-1.00;101241;1302;1004097;-35
2023/03/03 12:22:38;;;;;;;40.20;13.70;;;;;;;-128.00;-1.00;-1.00;101249;1298;1005129;-30
2023/03/03 12:25:14;;;;;;;34.10;13.40;;;;;;;-128.00;-1.00;-1.00;101259;1302;1004931;-29
2023/03/03 12:28:00;;;;;;;25.80;11.20;;;;;;;-128.00;-1.00;-1.00;101220;1302;1005307;-31
2023/03/03 12:30:39;;;;;;;19.20;8.40;;;;;;;-128.00;-1.00;-1.00;101372;1302;1004055;-34
2023/03/03 12:33:21;;;;;;;21.80;10.30;;;;;;;-128.00;-1.00;-1.00;101255;1302;1004086;-32
2023/03/03 12:35:54;;;;;;;25.80;10.90;;;;;;;-128.00;-1.00;-1.00;101240;1302;1004635;-31
2023/03/03 12:38:34;;;;;;;20.20;11.80;;;;;;;-128.00;-1.00;-1.00;101211;1302;1003786;-29
2023/03/03 12:41:30;;;;;;;20.70;10.50;;;;;;;-128.00;-1.00;-1.00;101200;1302;1004176;-34